M/s Stromma Kanal — SJLM — position and weather

sailwx.info

Track history (hours):
 
Tides and Currents Weather Stations Pressure Air Temp Water Temp Dewpoint Dewpoint Depression Visibility Wind Speed Wind Dir Waves Ship Positions

M/s Stromma Kanal

Last reported at 2016-Sep-24 21:33 UTC. Time now 2016-Sep-25 00:17 UTC.
Position N 59°20' E 018°05'.

Length 26 m.

Type: Passenger vessel. MMSI: 265609570.

Date/timePositionNaut miles runAvg speedWind from/ knotsBaromVisibWave heightAir tempDewpointWater temp
2016-Sep-24 21:33N 59°20' E 018°05'4 1.3
2016-Sep-24 18:14N 59°21' E 018°14'5 1.3
2016-Sep-24 14:31N 59°20' E 018°05'0 0.0
2016-Sep-24 12:31N 59°20' E 018°05'0 0.0
2016-Sep-24 10:31N 59°20' E 018°05'0 0.0
2016-Sep-24 09:31N 59°20' E 018°05'0 0.0
2016-Sep-24 03:31N 59°20' E 018°05'0 0.0
2016-Sep-24 02:31N 59°20' E 018°05'0 0.0
2016-Sep-24 01:31N 59°20' E 018°05'0 0.0
2016-Sep-24 00:31N 59°20' E 018°05'0 0.1
2016-Sep-23 17:33N 59°20' E 018°05'0 0.3
2016-Sep-23 16:32N 59°20' E 018°05'0 0.0
2016-Sep-23 15:32N 59°20' E 018°05'0 0.0
2016-Sep-23 13:32N 59°20' E 018°05'0 0.0
2016-Sep-23 09:32N 59°20' E 018°05'0 0.0
2016-Sep-23 06:32N 59°20' E 018°05'0 0.0
2016-Sep-23 04:32N 59°20' E 018°05'0 0.0
2016-Sep-23 03:32N 59°20' E 018°05'0 0.0
2016-Sep-23 02:32N 59°20' E 018°05'0 0.0
2016-Sep-23 01:32N 59°20' E 018°05'0 0.0
2016-Sep-23 00:32N 59°20' E 018°05'0 0.0
2016-Sep-22 23:32N 59°20' E 018°05'0 0.0
2016-Sep-22 20:33N 59°20' E 018°05'0 0.0
2016-Sep-22 04:32N 59°20' E 018°05'0 0.0
2016-Sep-22 03:32N 59°20' E 018°05'0 0.0
2016-Sep-22 00:32N 59°20' E 018°05'0 0.0
2016-Sep-21 23:29N 59°20' E 018°05'0 0.0
2016-Sep-21 22:32N 59°20' E 018°05'0 0.0
2016-Sep-21 16:33N 59°20' E 018°05'0 0.0
2016-Sep-21 09:33N 59°20' E 018°05'0 0.0
2016-Sep-21 08:33N 59°20' E 018°05'0 0.0
2016-Sep-21 05:33N 59°20' E 018°05'0 0.0
2016-Sep-21 03:33N 59°20' E 018°05'0 0.0
2016-Sep-21 02:33N 59°20' E 018°05'2 0.2
2016-Sep-20 17:33N 59°19' E 018°02'2 0.6
2016-Sep-20 14:32N 59°20' E 018°05'0 0.0
2016-Sep-20 13:32N 59°20' E 018°05'0 0.0
2016-Sep-20 10:32N 59°20' E 018°05'0 0.0
2016-Sep-20 08:32N 59°20' E 018°05'0 0.0
2016-Sep-20 07:32N 59°20' E 018°05'0 0.0
2016-Sep-20 06:32N 59°20' E 018°05'0 0.0
2016-Sep-20 02:32N 59°20' E 018°05'0 0.0
2016-Sep-19 23:32N 59°20' E 018°05'0 0.0
2016-Sep-19 19:32N 59°20' E 018°05'0 0.0
2016-Sep-19 18:32N 59°20' E 018°05'0 0.0
2016-Sep-19 16:29N 59°20' E 018°05'0 0.0
2016-Sep-19 14:32N 59°20' E 018°05'0 0.0
2016-Sep-19 13:32N 59°20' E 018°05'0 0.0
2016-Sep-19 12:32N 59°20' E 018°05'0 0.0
2016-Sep-19 11:32N 59°20' E 018°05'0 0.0
2016-Sep-19 09:32N 59°20' E 018°05'0 0.0
2016-Sep-19 07:32N 59°20' E 018°05'0 0.0
2016-Sep-19 06:32N 59°20' E 018°05'0 0.0
2016-Sep-19 03:23N 59°20' E 018°05'0 0.0
2016-Sep-19 02:32N 59°20' E 018°05'0 0.0
2016-Sep-19 00:32N 59°20' E 018°05'0 0.0
2016-Sep-18 19:32N 59°20' E 018°05'0 0.0
2016-Sep-18 15:32N 59°20' E 018°05'0 0.0
2016-Sep-18 14:32N 59°20' E 018°05'4 1.1
2016-Sep-18 10:33N 59°19' E 017°56'5 4.2
2016-Sep-18 09:26N 59°18' E 018°05'2 0.2
2016-Sep-18 02:33N 59°20' E 018°05'0 0.0
2016-Sep-18 01:33N 59°20' E 018°05'0 0.0
2016-Sep-18 00:33N 59°20' E 018°05'0 0.0
2016-Sep-17 22:33N 59°20' E 018°05'0 0.0
2016-Sep-17 21:33N 59°20' E 018°05'0 0.0
2016-Sep-17 20:33N 59°20' E 018°05'0 0.0
2016-Sep-17 13:31N 59°20' E 018°05'0 0.0
2016-Sep-17 12:31N 59°20' E 018°05'0 0.0
2016-Sep-17 10:31N 59°20' E 018°05'0 0.0
2016-Sep-17 09:31N 59°20' E 018°05'0 0.0
2016-Sep-17 08:31N 59°20' E 018°05'0 0.0
2016-Sep-17 07:34N 59°20' E 018°05'0 0.0
2016-Sep-17 05:31N 59°20' E 018°05'0 0.0
2016-Sep-17 04:31N 59°20' E 018°05'0 0.0
2016-Sep-17 00:31N 59°20' E 018°05'0 0.0
2016-Sep-16 17:33N 59°20' E 018°05'0 0.0
2016-Sep-16 15:33N 59°20' E 018°05'0 0.0
2016-Sep-16 12:33N 59°20' E 018°05'0 0.0
2016-Sep-16 09:33N 59°20' E 018°05'0 0.0
2016-Sep-16 07:33N 59°20' E 018°05'0 0.0
2016-Sep-16 03:33N 59°20' E 018°05'0 0.0
2016-Sep-16 02:33N 59°20' E 018°05'0 0.0
2016-Sep-16 00:33N 59°20' E 018°05'0 0.0
2016-Sep-15 22:33N 59°20' E 018°05'0 0.0
2016-Sep-15 21:33N 59°20' E 018°05'0 0.0
2016-Sep-15 20:28N 59°20' E 018°05'5 2.1
2016-Sep-15 18:12N 59°21' E 018°14'5 0.8
2016-Sep-15 12:31N 59°20' E 018°05'0 0.0
2016-Sep-15 11:28N 59°20' E 018°05'0 0.0
2016-Sep-15 04:31N 59°20' E 018°05'0 0.0
2016-Sep-15 03:31N 59°20' E 018°05'0 0.0
2016-Sep-15 01:31N 59°20' E 018°05'0 0.0
2016-Sep-14 22:31N 59°20' E 018°05'  
Track history (hours):
 
Tides and Currents Weather Stations Pressure Air Temp Water Temp Dewpoint Dewpoint Depression Visibility Wind Speed Wind Dir Waves Ship Positions

M/s Stromma Kanal

Last reported at 2016-Sep-24 21:33 UTC. Time now 2016-Sep-25 00:17 UTC.
Position N 59°20' E 018°05'.

Length 26 m.

Type: Passenger vessel. MMSI: 265609570.

Date/timePositionNaut miles runAvg speedWind from/ knotsBaromVisibWave heightAir tempDewpointWater temp
2016-Sep-24 21:33N 59°20' E 018°05'4 1.3
2016-Sep-24 18:14N 59°21' E 018°14'5 1.3
2016-Sep-24 14:31N 59°20' E 018°05'0 0.0
2016-Sep-24 12:31N 59°20' E 018°05'0 0.0
2016-Sep-24 10:31N 59°20' E 018°05'0 0.0
2016-Sep-24 09:31N 59°20' E 018°05'0 0.0
2016-Sep-24 03:31N 59°20' E 018°05'0 0.0
2016-Sep-24 02:31N 59°20' E 018°05'0 0.0
2016-Sep-24 01:31N 59°20' E 018°05'0 0.0
2016-Sep-24 00:31N 59°20' E 018°05'0 0.1
2016-Sep-23 17:33N 59°20' E 018°05'0 0.3
2016-Sep-23 16:32N 59°20' E 018°05'0 0.0
2016-Sep-23 15:32N 59°20' E 018°05'0 0.0
2016-Sep-23 13:32N 59°20' E 018°05'0 0.0
2016-Sep-23 09:32N 59°20' E 018°05'0 0.0
2016-Sep-23 06:32N 59°20' E 018°05'0 0.0
2016-Sep-23 04:32N 59°20' E 018°05'0 0.0
2016-Sep-23 03:32N 59°20' E 018°05'0 0.0
2016-Sep-23 02:32N 59°20' E 018°05'0 0.0
2016-Sep-23 01:32N 59°20' E 018°05'0 0.0
2016-Sep-23 00:32N 59°20' E 018°05'0 0.0
2016-Sep-22 23:32N 59°20' E 018°05'0 0.0
2016-Sep-22 20:33N 59°20' E 018°05'0 0.0
2016-Sep-22 04:32N 59°20' E 018°05'0 0.0
2016-Sep-22 03:32N 59°20' E 018°05'0 0.0
2016-Sep-22 00:32N 59°20' E 018°05'0 0.0
2016-Sep-21 23:29N 59°20' E 018°05'0 0.0
2016-Sep-21 22:32N 59°20' E 018°05'0 0.0
2016-Sep-21 16:33N 59°20' E 018°05'0 0.0
2016-Sep-21 09:33N 59°20' E 018°05'0 0.0
2016-Sep-21 08:33N 59°20' E 018°05'0 0.0
2016-Sep-21 05:33N 59°20' E 018°05'0 0.0
2016-Sep-21 03:33N 59°20' E 018°05'0 0.0
2016-Sep-21 02:33N 59°20' E 018°05'2 0.2
2016-Sep-20 17:33N 59°19' E 018°02'2 0.6
2016-Sep-20 14:32N 59°20' E 018°05'0 0.0
2016-Sep-20 13:32N 59°20' E 018°05'0 0.0
2016-Sep-20 10:32N 59°20' E 018°05'0 0.0
2016-Sep-20 08:32N 59°20' E 018°05'0 0.0
2016-Sep-20 07:32N 59°20' E 018°05'0 0.0
2016-Sep-20 06:32N 59°20' E 018°05'0 0.0
2016-Sep-20 02:32N 59°20' E 018°05'0 0.0
2016-Sep-19 23:32N 59°20' E 018°05'0 0.0
2016-Sep-19 19:32N 59°20' E 018°05'0 0.0
2016-Sep-19 18:32N 59°20' E 018°05'0 0.0
2016-Sep-19 16:29N 59°20' E 018°05'0 0.0
2016-Sep-19 14:32N 59°20' E 018°05'0 0.0
2016-Sep-19 13:32N 59°20' E 018°05'0 0.0
2016-Sep-19 12:32N 59°20' E 018°05'0 0.0
2016-Sep-19 11:32N 59°20' E 018°05'0 0.0
2016-Sep-19 09:32N 59°20' E 018°05'0 0.0
2016-Sep-19 07:32N 59°20' E 018°05'0 0.0
2016-Sep-19 06:32N 59°20' E 018°05'0 0.0
2016-Sep-19 03:23N 59°20' E 018°05'0 0.0
2016-Sep-19 02:32N 59°20' E 018°05'0 0.0
2016-Sep-19 00:32N 59°20' E 018°05'0 0.0
2016-Sep-18 19:32N 59°20' E 018°05'0 0.0
2016-Sep-18 15:32N 59°20' E 018°05'0 0.0
2016-Sep-18 14:32N 59°20' E 018°05'4 1.1
2016-Sep-18 10:33N 59°19' E 017°56'5 4.2
2016-Sep-18 09:26N 59°18' E 018°05'2 0.2
2016-Sep-18 02:33N 59°20' E 018°05'0 0.0
2016-Sep-18 01:33N 59°20' E 018°05'0 0.0
2016-Sep-18 00:33N 59°20' E 018°05'0 0.0
2016-Sep-17 22:33N 59°20' E 018°05'0 0.0
2016-Sep-17 21:33N 59°20' E 018°05'0 0.0
2016-Sep-17 20:33N 59°20' E 018°05'0 0.0
2016-Sep-17 13:31N 59°20' E 018°05'0 0.0
2016-Sep-17 12:31N 59°20' E 018°05'0 0.0
2016-Sep-17 10:31N 59°20' E 018°05'0 0.0
2016-Sep-17 09:31N 59°20' E 018°05'0 0.0
2016-Sep-17 08:31N 59°20' E 018°05'0 0.0
2016-Sep-17 07:34N 59°20' E 018°05'0 0.0
2016-Sep-17 05:31N 59°20' E 018°05'0 0.0
2016-Sep-17 04:31N 59°20' E 018°05'0 0.0
2016-Sep-17 00:31N 59°20' E 018°05'0 0.0
2016-Sep-16 17:33N 59°20' E 018°05'0 0.0
2016-Sep-16 15:33N 59°20' E 018°05'0 0.0
2016-Sep-16 12:33N 59°20' E 018°05'0 0.0
2016-Sep-16 09:33N 59°20' E 018°05'0 0.0
2016-Sep-16 07:33N 59°20' E 018°05'0 0.0
2016-Sep-16 03:33N 59°20' E 018°05'0 0.0
2016-Sep-16 02:33N 59°20' E 018°05'0 0.0
2016-Sep-16 00:33N 59°20' E 018°05'0 0.0
2016-Sep-15 22:33N 59°20' E 018°05'0 0.0
2016-Sep-15 21:33N 59°20' E 018°05'0 0.0
2016-Sep-15 20:28N 59°20' E 018°05'5 2.1
2016-Sep-15 18:12N 59°21' E 018°14'5 0.8
2016-Sep-15 12:31N 59°20' E 018°05'0 0.0
2016-Sep-15 11:28N 59°20' E 018°05'0 0.0
2016-Sep-15 04:31N 59°20' E 018°05'0 0.0
2016-Sep-15 03:31N 59°20' E 018°05'0 0.0
2016-Sep-15 01:31N 59°20' E 018°05'0 0.0
2016-Sep-14 22:31N 59°20' E 018°05'  

Dump ship's entire track history